createdAt,value
2018-02-17T00:01:35.149Z,32.63
2018-02-17T00:04:02.619Z,31.47
2018-02-17T00:06:30.046Z,33.10
2018-02-17T00:08:57.519Z,27.23
2018-02-17T00:11:24.952Z,28.87
2018-02-17T00:13:52.405Z,30.13
2018-02-17T00:16:19.846Z,28.17
2018-02-17T00:18:47.333Z,27.67
2018-02-17T00:21:14.761Z,33.33
2018-02-17T00:23:42.207Z,33.90
2018-02-17T00:26:09.644Z,29.70
2018-02-17T00:28:37.107Z,30.70
2018-02-17T00:31:04.576Z,31.03
2018-02-17T00:33:32.020Z,36.50
2018-02-17T00:35:59.475Z,36.10
2018-02-17T00:38:26.931Z,28.50
2018-02-17T00:40:54.484Z,37.53
2018-02-17T00:43:21.954Z,32.93
2018-02-17T00:45:49.392Z,31.73
2018-02-17T00:48:16.846Z,28.10
2018-02-17T00:50:44.280Z,36.90
2018-02-17T00:53:11.740Z,31.57
2018-02-17T00:55:39.172Z,38.47
2018-02-17T00:58:06.649Z,48.73
2018-02-17T01:00:34.114Z,51.57
2018-02-17T01:03:01.576Z,38.63
2018-02-17T01:05:29.025Z,34.53
2018-02-17T01:07:56.484Z,36.77
2018-02-17T01:10:23.929Z,38.87
2018-02-17T01:12:51.398Z,49.90
2018-02-17T01:15:19.637Z,42.07
2018-02-17T01:17:47.105Z,31.60
2018-02-17T01:20:14.556Z,32.20
2018-02-17T01:22:42.020Z,32.47
2018-02-17T01:25:09.635Z,28.53
2018-02-17T01:27:37.099Z,40.00
2018-02-17T01:30:04.569Z,36.80
2018-02-17T01:32:32.041Z,34.33
2018-02-17T01:34:59.509Z,35.40
2018-02-17T01:37:26.955Z,51.67
2018-02-17T01:39:54.406Z,50.80
2018-02-17T01:42:21.865Z,47.23
2018-02-17T01:44:49.362Z,41.83
2018-02-17T01:47:16.800Z,41.67
2018-02-17T01:49:44.248Z,48.57
2018-02-17T01:52:11.724Z,41.30
2018-02-17T01:54:40.193Z,35.87
2018-02-17T01:57:07.647Z,43.33
2018-02-17T01:59:35.097Z,41.80
2018-02-17T02:02:02.626Z,43.90
2018-02-17T02:04:30.843Z,38.80
2018-02-17T02:06:58.290Z,40.70
2018-02-17T02:09:27.054Z,42.07
2018-02-17T02:11:54.509Z,33.63
2018-02-17T02:14:21.976Z,37.63
2018-02-17T02:16:49.423Z,39.70
2018-02-17T02:19:16.888Z,37.92
2018-02-17T02:21:44.360Z,35.80
2018-02-17T02:24:11.801Z,36.07
2018-02-17T02:26:39.291Z,39.95
2018-02-17T02:29:06.734Z,32.17
2018-02-17T02:31:34.208Z,41.88
2018-02-17T02:34:01.664Z,34.60
2018-02-17T02:36:29.142Z,32.03
2018-02-17T02:38:56.586Z,37.33
2018-02-17T02:41:24.076Z,35.65
2018-02-17T02:43:51.525Z,31.93
2018-02-17T02:46:18.982Z,30.98
2018-02-17T02:48:46.426Z,29.33
2018-02-17T02:51:13.898Z,30.00
2018-02-17T02:53:42.065Z,35.37
2018-02-17T02:56:09.523Z,35.42
2018-02-17T02:58:36.964Z,37.80
2018-02-17T03:01:04.410Z,30.67
2018-02-17T03:03:32.169Z,30.93
2018-02-17T03:05:59.640Z,32.03
2018-02-17T03:08:27.082Z,37.47
2018-02-17T03:10:54.544Z,35.58
2018-02-17T03:13:21.996Z,43.17
2018-02-17T03:15:49.543Z,39.33
2018-02-17T03:18:17.041Z,43.97
2018-02-17T03:20:44.466Z,39.77
2018-02-17T03:23:11.927Z,34.00
2018-02-17T03:25:39.387Z,35.77
2018-02-17T03:28:06.837Z,29.63
2018-02-17T03:30:34.300Z,39.37
2018-02-17T03:33:01.765Z,34.55
2018-02-17T03:35:29.216Z,35.10
2018-02-17T03:37:57.568Z,34.47
2018-02-17T03:40:25.072Z,32.20
2018-02-17T03:42:52.529Z,32.43
2018-02-17T03:45:19.974Z,38.10
2018-02-17T03:47:47.430Z,36.97
2018-02-17T03:50:14.908Z,34.03
2018-02-17T03:52:42.356Z,34.17
2018-02-17T03:55:09.812Z,31.77
2018-02-17T03:57:37.259Z,34.80
2018-02-17T04:00:04.726Z,31.17
2018-02-17T04:02:32.179Z,35.03
2018-02-17T04:04:59.635Z,30.42
2018-02-17T04:07:28.124Z,38.65
2018-02-17T04:09:55.586Z,34.37
2018-02-17T04:12:23.043Z,28.73
2018-02-17T04:14:50.509Z,30.45
2018-02-17T04:17:17.966Z,31.52
2018-02-17T04:19:45.430Z,26.37
2018-02-17T04:22:13.046Z,31.13
2018-02-17T04:24:40.491Z,31.43
2018-02-17T04:27:07.949Z,58.10
2018-02-17T04:29:35.416Z,28.37
2018-02-17T04:32:02.884Z,26.57
2018-02-17T04:34:30.356Z,31.63
2018-02-17T04:36:57.813Z,30.93
2018-02-17T04:39:25.277Z,24.85
2018-02-17T04:42:06.539Z,22.57
2018-02-17T04:44:37.473Z,26.23
2018-02-17T04:47:14.337Z,25.63
2018-02-17T04:49:42.264Z,31.23
2018-02-17T04:52:16.039Z,26.57
2018-02-17T04:54:49.181Z,23.30
2018-02-17T04:57:16.616Z,29.02
2018-02-17T04:59:50.401Z,24.07
2018-02-17T05:02:32.721Z,23.27
2018-02-17T05:05:06.707Z,19.93
2018-02-17T05:07:49.059Z,24.50
2018-02-17T05:10:16.543Z,24.17
2018-02-17T05:12:43.987Z,24.75
2018-02-17T05:15:24.172Z,20.20
2018-02-17T05:17:51.628Z,25.43
2018-02-17T05:20:19.096Z,21.08
2018-02-17T05:22:49.101Z,21.02
2018-02-17T05:25:33.229Z,24.60
2018-02-17T05:28:00.694Z,32.88
2018-02-17T05:30:28.146Z,23.13
2018-02-17T05:33:00.026Z,23.83
2018-02-17T05:35:37.464Z,31.75
2018-02-17T05:38:04.900Z,30.67
2018-02-17T05:40:33.161Z,25.23
2018-02-17T05:43:01.307Z,33.88
2018-02-17T05:45:29.598Z,25.45
2018-02-17T05:48:09.885Z,26.23
2018-02-17T05:50:37.829Z,30.63
2018-02-17T05:53:05.280Z,29.75
2018-02-17T05:55:32.740Z,24.92
2018-02-17T05:58:00.235Z,23.10
2018-02-17T06:00:28.468Z,28.53
2018-02-17T06:02:56.187Z,29.90
2018-02-17T06:05:23.592Z,30.92
2018-02-17T06:07:52.038Z,33.53
2018-02-17T06:10:19.509Z,26.83
2018-02-17T06:12:46.969Z,29.10
2018-02-17T06:15:14.441Z,30.25
2018-02-17T06:17:41.884Z,38.50
2018-02-17T06:20:09.372Z,39.55
2018-02-17T06:22:36.823Z,31.90
2018-02-17T06:25:04.289Z,32.50
2018-02-17T06:27:31.731Z,37.53
2018-02-17T06:29:59.192Z,38.83
2018-02-17T06:32:26.656Z,37.33
2018-02-17T06:34:54.095Z,38.08
2018-02-17T06:37:22.272Z,37.28
2018-02-17T06:39:49.726Z,41.35
2018-02-17T06:42:17.237Z,33.88
2018-02-17T06:44:44.675Z,42.65
2018-02-17T06:47:12.144Z,38.03
2018-02-17T06:49:39.616Z,42.53
2018-02-17T06:52:07.082Z,40.15
2018-02-17T06:54:34.553Z,42.28
2018-02-17T06:57:01.998Z,38.67
2018-02-17T06:59:29.465Z,41.55
2018-02-17T07:01:56.910Z,40.90
2018-02-17T07:04:24.376Z,39.00
2018-02-17T07:06:51.820Z,42.03
2018-02-17T07:09:19.468Z,43.75
2018-02-17T07:11:47.248Z,40.50
2018-02-17T07:14:14.715Z,39.03
2018-02-17T07:16:42.188Z,38.15
2018-02-17T07:19:09.703Z,41.10
2018-02-17T07:21:37.177Z,47.20
2018-02-17T07:24:04.621Z,46.72
2018-02-17T07:26:32.093Z,46.92
2018-02-17T07:28:59.551Z,38.67
2018-02-17T07:31:27.192Z,36.92
2018-02-17T07:33:55.412Z,36.50
2018-02-17T07:36:22.872Z,43.40
2018-02-17T07:38:50.325Z,41.90
2018-02-17T07:41:17.785Z,40.25
2018-02-17T07:43:45.230Z,42.95
2018-02-17T07:46:12.688Z,42.60
2018-02-17T07:48:40.172Z,42.37
2018-02-17T07:51:07.614Z,38.20
2018-02-17T07:53:35.236Z,49.13
2018-02-17T07:56:02.720Z,40.07
2018-02-17T07:58:30.178Z,37.05
2018-02-17T08:00:57.636Z,37.17
2018-02-17T08:03:25.088Z,30.95
2018-02-17T08:05:52.551Z,37.60
2018-02-17T08:08:19.999Z,35.38
2018-02-17T08:10:47.453Z,34.33
2018-02-17T08:13:14.908Z,36.38
2018-02-17T08:15:42.355Z,36.33
2018-02-17T08:18:09.818Z,38.60
2018-02-17T08:20:37.293Z,44.40
2018-02-17T08:23:04.749Z,32.38
2018-02-17T08:25:32.192Z,39.40
2018-02-17T08:27:59.693Z,36.67
2018-02-17T08:30:27.154Z,29.55
2018-02-17T08:32:54.629Z,34.53
2018-02-17T08:35:22.100Z,38.50
2018-02-17T08:37:49.565Z,39.58
2018-02-17T08:40:17.029Z,40.58
2018-02-17T08:42:44.512Z,40.38
2018-02-17T08:45:11.985Z,40.27
2018-02-17T08:47:39.456Z,45.10
2018-02-17T08:50:06.932Z,52.70
2018-02-17T08:52:35.168Z,39.40
2018-02-17T08:55:02.667Z,54.80
2018-02-17T08:57:30.124Z,37.75
2018-02-17T08:59:57.592Z,40.70
2018-02-17T09:02:25.036Z,48.95
2018-02-17T09:04:52.553Z,43.58
2018-02-17T09:07:20.517Z,48.85
2018-02-17T09:09:47.977Z,38.60
2018-02-17T09:12:15.454Z,41.60
2018-02-17T09:14:42.908Z,50.67
2018-02-17T09:17:10.366Z,37.70
2018-02-17T09:19:37.859Z,43.57
2018-02-17T09:22:05.324Z,41.33
2018-02-17T09:24:33.601Z,54.87
2018-02-17T09:27:01.060Z,41.90
2018-02-17T09:29:28.558Z,49.17
2018-02-17T09:31:55.993Z,48.80
2018-02-17T09:34:23.459Z,52.78
2018-02-17T09:36:50.936Z,42.13
2018-02-17T09:39:18.435Z,45.12
2018-02-17T09:41:45.902Z,35.90
2018-02-17T09:44:13.889Z,41.90
2018-02-17T09:46:41.378Z,36.93
2018-02-17T09:49:08.813Z,30.58
2018-02-17T09:51:36.262Z,29.97
2018-02-17T09:54:03.743Z,31.30
2018-02-17T09:56:31.193Z,31.70
2018-02-17T09:58:58.701Z,24.65
2018-02-17T10:01:26.166Z,27.03
2018-02-17T10:03:53.673Z,26.85
2018-02-17T10:06:21.130Z,26.07
2018-02-17T10:08:48.594Z,21.65
2018-02-17T10:11:16.122Z,29.60
2018-02-17T10:13:43.598Z,24.95
2018-02-17T10:16:11.041Z,25.33
2018-02-17T10:18:38.552Z,20.20
2018-02-17T10:21:06.019Z,16.52
2018-02-17T10:23:33.507Z,17.55
2018-02-17T10:26:00.982Z,14.70
2018-02-17T10:28:28.473Z,16.10
2018-02-17T10:30:55.949Z,14.77
2018-02-17T10:33:23.416Z,15.65
2018-02-17T10:35:50.889Z,16.08
2018-02-17T10:38:18.357Z,10.93
2018-02-17T10:40:45.833Z,12.45
2018-02-17T10:43:13.269Z,12.50
2018-02-17T10:45:40.741Z,14.50
2018-02-17T10:48:08.216Z,13.38
2018-02-17T10:50:35.914Z,11.48
2018-02-17T10:53:03.369Z,10.05
2018-02-17T10:55:36.573Z,14.00
2018-02-17T10:58:04.030Z,9.07
2018-02-17T11:00:31.472Z,11.20
2018-02-17T11:02:58.936Z,11.33
2018-02-17T11:05:26.418Z,12.32
2018-02-17T11:07:53.879Z,12.02
2018-02-17T11:10:21.328Z,11.60
2018-02-17T11:12:48.790Z,11.27
2018-02-17T11:15:16.240Z,17.70
2018-02-17T11:17:43.706Z,8.97
2018-02-17T11:20:11.152Z,11.48
2018-02-17T11:22:38.608Z,12.40
2018-02-17T11:25:06.815Z,14.23
2018-02-17T11:27:34.332Z,9.85
2018-02-17T11:30:01.788Z,12.60
2018-02-17T11:32:29.256Z,10.40
2018-02-17T11:34:57.511Z,13.90
2018-02-17T11:37:24.966Z,13.75
2018-02-17T11:39:52.437Z,11.23
2018-02-17T11:42:19.896Z,12.23
2018-02-17T11:44:47.386Z,14.37
2018-02-17T11:47:15.111Z,12.20
2018-02-17T11:49:42.557Z,17.70
2018-02-17T11:52:10.021Z,13.90
2018-02-17T11:54:37.474Z,15.80
2018-02-17T11:57:04.980Z,18.17
2018-02-17T11:59:32.527Z,17.63
2018-02-17T12:02:00.087Z,16.57
2018-02-17T12:04:27.548Z,22.67
2018-02-17T12:06:55.782Z,19.20
2018-02-17T12:09:23.244Z,18.17
2018-02-17T12:11:50.701Z,22.27
2018-02-17T12:14:18.273Z,30.80
2018-02-17T12:16:45.761Z,23.67
2018-02-17T12:19:13.215Z,22.10
2018-02-17T12:21:40.679Z,26.50
2018-02-17T12:24:08.140Z,22.23
2018-02-17T12:26:35.585Z,23.67
2018-02-17T12:29:03.048Z,22.73
2018-02-17T12:31:30.529Z,26.33
2018-02-17T12:33:58.018Z,24.00
2018-02-17T12:36:25.477Z,23.33
2018-02-17T12:38:53.384Z,19.90
2018-02-17T12:41:20.965Z,20.30
2018-02-17T12:43:48.412Z,20.02
2018-02-17T12:46:16.638Z,36.00
2018-02-17T12:48:44.109Z,27.33
2018-02-17T12:51:11.571Z,17.83
2018-02-17T12:53:39.815Z,16.60
2018-02-17T12:56:08.057Z,17.53
2018-02-17T12:58:35.513Z,18.23
2018-02-17T13:01:02.985Z,17.70
2018-02-17T13:03:30.530Z,16.87
2018-02-17T13:05:57.987Z,17.43
2018-02-17T13:08:25.476Z,23.10
2018-02-17T13:10:52.952Z,21.35
2018-02-17T13:13:20.428Z,20.88
2018-02-17T13:15:47.909Z,20.42
2018-02-17T13:18:16.212Z,18.15
2018-02-17T13:20:43.669Z,20.53
2018-02-17T13:23:11.151Z,16.57
2018-02-17T13:25:38.602Z,18.00
2018-02-17T13:28:06.064Z,17.33
2018-02-17T13:30:33.544Z,17.02
2018-02-17T13:33:01.014Z,19.57
2018-02-17T13:35:29.264Z,18.02
2018-02-17T13:37:56.733Z,23.60
2018-02-17T13:40:24.197Z,19.52
2018-02-17T13:42:51.653Z,20.10
2018-02-17T13:45:19.111Z,24.20
2018-02-17T13:47:46.596Z,26.47
2018-02-17T13:50:14.146Z,25.45
2018-02-17T13:52:41.652Z,22.17
2018-02-17T13:55:09.136Z,25.57
2018-02-17T13:57:36.583Z,26.00
2018-02-17T14:00:04.057Z,23.47
2018-02-17T14:02:33.222Z,16.63
2018-02-17T14:05:00.685Z,25.35
2018-02-17T14:07:28.183Z,16.52
2018-02-17T14:09:55.869Z,19.77
2018-02-17T14:12:23.335Z,22.20
2018-02-17T14:14:50.797Z,21.60
2018-02-17T14:17:18.276Z,21.85
2018-02-17T14:19:45.748Z,30.23
2018-02-17T14:22:14.222Z,24.15
2018-02-17T14:24:41.700Z,21.42
2018-02-17T14:27:09.944Z,24.40
2018-02-17T14:29:37.912Z,24.02
2018-02-17T14:32:05.376Z,23.62
2018-02-17T14:34:32.831Z,22.90
2018-02-17T14:37:00.298Z,21.00
2018-02-17T14:39:27.774Z,25.00
2018-02-17T14:41:55.215Z,24.95
2018-02-17T14:44:23.709Z,26.00
2018-02-17T14:46:51.166Z,30.40
2018-02-17T14:49:18.641Z,22.20
2018-02-17T14:51:46.342Z,30.50
2018-02-17T14:54:13.835Z,27.95
2018-02-17T14:56:41.303Z,29.17
2018-02-17T14:59:08.763Z,26.77
2018-02-17T15:01:36.229Z,29.77
2018-02-17T15:04:03.694Z,37.60
2018-02-17T15:06:31.927Z,30.90
2018-02-17T15:08:59.407Z,26.77
2018-02-17T15:11:26.933Z,30.97
2018-02-17T15:13:55.161Z,33.30
2018-02-17T15:16:23.420Z,39.50
2018-02-17T15:18:50.906Z,35.40
2018-02-17T15:21:18.364Z,32.33
2018-02-17T15:23:45.957Z,36.97
2018-02-17T15:26:13.425Z,39.03
2018-02-17T15:28:40.890Z,40.60
2018-02-17T15:31:08.365Z,38.25
2018-02-17T15:33:35.853Z,39.67
2018-02-17T15:36:03.306Z,35.15
2018-02-17T15:38:30.795Z,37.72
2018-02-17T15:40:58.317Z,33.85
2018-02-17T15:43:25.782Z,31.98
2018-02-17T15:45:53.273Z,30.42
2018-02-17T15:48:20.745Z,39.95
2018-02-17T15:50:48.204Z,38.47
2018-02-17T15:53:15.666Z,37.28
2018-02-17T15:55:43.132Z,34.17
2018-02-17T15:58:10.755Z,33.00
2018-02-17T16:00:38.221Z,28.35
2018-02-17T16:03:05.677Z,41.50
2018-02-17T16:05:33.193Z,27.27
2018-02-17T16:08:00.622Z,27.42
2018-02-17T16:10:28.074Z,34.28
2018-02-17T16:12:55.560Z,31.08
2018-02-17T16:15:24.630Z,29.98
2018-02-17T16:17:52.103Z,27.42
2018-02-17T16:20:19.671Z,30.55
2018-02-17T16:22:47.153Z,34.58
2018-02-17T16:25:14.593Z,23.05
2018-02-17T16:27:42.110Z,37.38
2018-02-17T16:30:10.408Z,29.90
2018-02-17T16:32:37.890Z,40.00
2018-02-17T16:35:06.117Z,37.53
2018-02-17T16:37:33.565Z,32.50
2018-02-17T16:40:01.029Z,37.92
2018-02-17T16:42:28.653Z,37.85
2018-02-17T16:44:56.131Z,42.65
2018-02-17T16:47:23.587Z,35.55
2018-02-17T16:49:51.045Z,48.65
2018-02-17T16:52:18.517Z,45.92
2018-02-17T16:54:45.962Z,39.60
2018-02-17T16:57:13.461Z,38.83
2018-02-17T16:59:40.900Z,42.20
2018-02-17T17:02:08.406Z,0.93
2018-02-17T17:04:35.856Z,0.70
2018-02-17T17:07:03.299Z,1.97
2018-02-17T17:09:30.752Z,0.50
2018-02-17T17:11:58.189Z,0.50
2018-02-17T17:14:25.624Z,0.60
2018-02-17T17:16:53.068Z,0.50
2018-02-17T17:19:20.522Z,0.50
2018-02-17T17:21:47.983Z,1.55
2018-02-17T17:24:15.432Z,0.55
2018-02-17T17:26:42.863Z,0.50
2018-02-17T17:29:10.335Z,0.50
2018-02-17T17:31:37.767Z,0.53
2018-02-17T17:34:05.240Z,0.50
2018-02-17T17:36:32.670Z,0.50
2018-02-17T17:39:00.104Z,1.80
2018-02-17T17:41:27.561Z,1.95
2018-02-17T17:43:55.037Z,0.50
2018-02-17T17:46:23.198Z,0.50
2018-02-17T17:48:50.658Z,0.50
2018-02-17T17:51:18.112Z,0.50
2018-02-17T17:53:45.547Z,0.60
2018-02-17T17:56:13.768Z,0.62
2018-02-17T17:58:41.966Z,0.50
2018-02-17T18:01:09.419Z,0.50
2018-02-17T18:03:36.843Z,0.50
2018-02-17T18:06:04.297Z,0.50
2018-02-17T18:08:31.729Z,7.93
2018-02-17T18:10:59.269Z,0.85
2018-02-17T18:13:26.726Z,0.73
2018-02-17T18:15:54.180Z,0.60
2018-02-17T18:18:21.623Z,0.50
2018-02-17T18:20:49.047Z,0.55
2018-02-17T18:23:16.495Z,0.50
2018-02-17T18:25:43.948Z,0.50
2018-02-17T18:28:11.403Z,0.50
2018-02-17T18:30:38.873Z,1.27
2018-02-17T18:33:06.328Z,0.50
2018-02-17T18:35:33.768Z,0.50
2018-02-17T18:38:01.234Z,0.75
2018-02-17T18:40:28.689Z,0.50
2018-02-17T18:42:56.191Z,0.50
2018-02-17T18:45:23.628Z,1.55
2018-02-17T18:47:51.102Z,1.17
2018-02-17T18:50:18.552Z,0.57
2018-02-17T18:52:46.955Z,0.50
2018-02-17T18:55:14.455Z,1.60
2018-02-17T18:57:41.924Z,1.02
2018-02-17T19:00:09.411Z,0.70
2018-02-17T19:02:37.609Z,0.50
2018-02-17T19:05:05.092Z,0.50
2018-02-17T19:07:32.544Z,0.50
2018-02-17T19:10:00.104Z,2.90
2018-02-17T19:12:27.537Z,0.50
2018-02-17T19:14:55.032Z,0.60
2018-02-17T19:17:22.452Z,0.50
2018-02-17T19:19:49.942Z,2.05
2018-02-17T19:22:17.424Z,0.50
2018-02-17T19:24:44.904Z,0.82
2018-02-17T19:27:12.329Z,0.50
2018-02-17T19:29:39.799Z,0.50
2018-02-17T19:32:07.235Z,0.95
2018-02-17T19:34:34.709Z,0.50
2018-02-17T19:37:02.144Z,0.62
2018-02-17T19:39:29.612Z,1.05
2018-02-17T19:41:57.092Z,0.75
2018-02-17T19:44:24.548Z,0.50
2018-02-17T19:46:51.980Z,2.55
2018-02-17T19:49:19.428Z,0.50
2018-02-17T19:51:46.897Z,0.50
2018-02-17T19:54:14.328Z,0.50
2018-02-17T19:56:41.765Z,0.77
2018-02-17T19:59:09.239Z,0.50
2018-02-17T20:01:36.665Z,0.50
2018-02-17T20:04:04.146Z,0.50
2018-02-17T20:06:31.602Z,1.12
2018-02-17T20:08:59.047Z,0.50
2018-02-17T20:11:26.472Z,0.50
2018-02-17T20:13:53.961Z,0.65
2018-02-17T20:16:21.373Z,9.10
2018-02-17T20:18:48.802Z,0.50
2018-02-17T20:21:16.328Z,0.60
2018-02-17T20:23:43.816Z,3.37
2018-02-17T20:26:11.237Z,0.47
2018-02-17T20:28:38.673Z,0.50
2018-02-17T20:31:06.121Z,0.62
2018-02-17T20:33:33.580Z,0.50
2018-02-17T20:36:01.038Z,0.50
2018-02-17T20:38:29.260Z,0.50
2018-02-17T20:40:56.735Z,0.50
2018-02-17T20:43:24.379Z,0.50
2018-02-17T20:45:51.812Z,0.60
2018-02-17T20:48:19.285Z,0.50
2018-02-17T20:50:46.703Z,1.25
2018-02-17T20:53:14.150Z,0.50
2018-02-17T20:55:41.581Z,0.50
2018-02-17T20:58:09.019Z,14.15
2018-02-17T21:00:36.465Z,0.50
2018-02-17T21:03:03.932Z,0.50
2018-02-17T21:05:32.628Z,0.50
2018-02-17T21:08:00.076Z,0.75
2018-02-17T21:10:27.523Z,0.50
2018-02-17T21:12:54.987Z,0.50
2018-02-17T21:15:23.208Z,0.60
2018-02-17T21:17:50.643Z,0.50
2018-02-17T21:20:18.099Z,0.50
2018-02-17T21:22:45.560Z,1.48
2018-02-17T21:25:12.992Z,0.60
2018-02-17T21:27:40.444Z,0.50
2018-02-17T21:30:07.939Z,0.50
2018-02-17T21:32:35.388Z,0.50
2018-02-17T21:35:02.848Z,0.50
2018-02-17T21:37:30.889Z,0.50
2018-02-17T21:39:58.344Z,0.50
2018-02-17T21:42:26.031Z,0.88
2018-02-17T21:44:53.493Z,0.50
2018-02-17T21:47:20.990Z,0.40
2018-02-17T21:49:48.478Z,0.50
2018-02-17T21:52:15.943Z,0.50
2018-02-17T21:54:43.396Z,0.73
2018-02-17T21:57:10.823Z,0.50
2018-02-17T21:59:39.068Z,0.50
2018-02-17T22:02:06.491Z,0.50
2018-02-17T22:04:33.933Z,0.50
2018-02-17T22:07:01.393Z,0.50
2018-02-17T22:09:28.843Z,1.00
2018-02-17T22:11:56.285Z,0.50
2018-02-17T22:14:23.703Z,0.50
2018-02-17T22:16:51.153Z,0.50
2018-02-17T22:19:18.608Z,1.58
2018-02-17T22:21:46.824Z,0.73
2018-02-17T22:24:14.267Z,0.50
2018-02-17T22:26:42.506Z,0.85
2018-02-17T22:29:09.967Z,0.50
2018-02-17T22:31:37.394Z,1.15
2018-02-17T22:34:04.852Z,0.50
2018-02-17T22:36:32.303Z,0.50
2018-02-17T22:38:59.732Z,0.50
2018-02-17T22:41:27.168Z,0.50
2018-02-17T22:43:54.627Z,0.50
2018-02-17T22:46:22.081Z,0.50
2018-02-17T22:48:49.508Z,1.02
2018-02-17T22:51:16.993Z,1.48
2018-02-17T22:53:45.064Z,0.50
2018-02-17T22:56:12.591Z,0.50
2018-02-17T22:58:40.038Z,0.50
2018-02-17T23:01:07.509Z,2.00
2018-02-17T23:03:34.948Z,0.50
2018-02-17T23:06:02.420Z,0.50
2018-02-17T23:08:29.878Z,2.90
2018-02-17T23:10:57.300Z,0.50
2018-02-17T23:13:24.732Z,0.50
2018-02-17T23:15:52.191Z,9.50
2018-02-17T23:18:19.740Z,1.98
2018-02-17T23:20:47.202Z,0.40
2018-02-17T23:23:14.932Z,0.45
2018-02-17T23:25:42.380Z,6.20
2018-02-17T23:28:09.824Z,0.50
2018-02-17T23:30:38.041Z,0.40
2018-02-17T23:33:05.476Z,1.10
2018-02-17T23:35:32.968Z,0.50
2018-02-17T23:38:00.396Z,2.53
2018-02-17T23:40:28.029Z,9.40
2018-02-17T23:42:55.488Z,1.10
2018-02-17T23:45:23.743Z,0.50
2018-02-17T23:47:51.127Z,0.50
2018-02-17T23:50:18.618Z,0.60
2018-02-17T23:52:46.105Z,0.50
2018-02-17T23:55:13.557Z,0.50
2018-02-17T23:57:40.989Z,1.30
